createdAt,value
2022-09-24T00:00:24.594Z,15.93
2022-09-24T00:02:57.659Z,15.75
2022-09-24T00:06:01.468Z,16.55
2022-09-24T00:08:55.954Z,15.63
2022-09-24T00:11:24.848Z,14.27
2022-09-24T00:13:54.778Z,14.27
2022-09-24T00:16:26.000Z,14.77
2022-09-24T00:18:54.829Z,12.70
2022-09-24T00:21:48.379Z,14.27
2022-09-24T00:24:38.147Z,14.60
2022-09-24T00:27:06.670Z,13.85
2022-09-24T00:29:36.618Z,14.27
2022-09-24T00:32:05.089Z,14.40
2022-09-24T00:34:37.214Z,13.73
2022-09-24T00:37:05.065Z,14.45
2022-09-24T00:39:32.911Z,12.75
2022-09-24T00:41:59.896Z,14.50
2022-09-24T00:45:04.588Z,13.95
2022-09-24T00:47:39.151Z,14.10
2022-09-24T00:50:31.570Z,13.95
2022-09-24T00:53:33.416Z,15.50
2022-09-24T00:56:03.721Z,16.50
2022-09-24T00:58:31.894Z,17.02
2022-09-24T01:01:05.917Z,17.55
2022-09-24T01:03:40.985Z,17.55
2022-09-24T01:06:09.149Z,20.30
2022-09-24T01:08:36.045Z,19.50
2022-09-24T01:11:06.690Z,20.17
2022-09-24T01:14:11.172Z,21.45
2022-09-24T01:16:45.694Z,21.25
2022-09-24T01:19:41.873Z,20.90
2022-09-24T01:22:15.868Z,22.15
2022-09-24T01:25:02.408Z,22.60
2022-09-24T01:27:57.664Z,21.05
2022-09-24T01:30:28.132Z,21.13
2022-09-24T01:33:00.137Z,19.70
2022-09-24T01:35:35.005Z,21.15
2022-09-24T01:38:06.420Z,20.50
2022-09-24T01:40:36.691Z,20.50
2022-09-24T01:43:05.495Z,20.90
2022-09-24T01:45:37.236Z,19.80
2022-09-24T01:48:06.678Z,20.73
2022-09-24T01:50:58.385Z,20.42
2022-09-24T01:53:39.790Z,21.05
2022-09-24T01:56:24.007Z,20.67
2022-09-24T01:59:09.503Z,21.75
2022-09-24T02:01:45.332Z,21.65
2022-09-24T02:04:16.858Z,21.48
2022-09-24T02:07:00.208Z,20.60
2022-09-24T02:09:36.800Z,20.85
2022-09-24T02:12:22.875Z,21.40
2022-09-24T02:14:56.770Z,20.67
2022-09-24T02:17:27.757Z,19.67
2022-09-24T02:19:58.398Z,19.45
2022-09-24T02:22:25.948Z,19.52
2022-09-24T02:24:57.223Z,18.45
2022-09-24T02:27:30.860Z,18.15
2022-09-24T02:30:01.019Z,17.45
2022-09-24T02:32:32.391Z,19.73
2022-09-24T02:35:06.274Z,19.85
2022-09-24T02:37:39.423Z,19.58
2022-09-24T02:40:09.034Z,19.75
2022-09-24T02:42:36.546Z,18.65
2022-09-24T02:45:05.597Z,19.15
2022-09-24T02:47:33.143Z,18.92
2022-09-24T02:50:01.146Z,20.45
2022-09-24T02:52:28.300Z,19.23
2022-09-24T02:54:55.181Z,21.25
2022-09-24T02:57:23.057Z,19.20
2022-09-24T02:59:53.076Z,19.92
2022-09-24T03:02:21.374Z,20.10
2022-09-24T03:04:52.268Z,21.23
2022-09-24T03:07:21.975Z,21.33
2022-09-24T03:09:50.028Z,22.10
2022-09-24T03:12:16.928Z,22.95
2022-09-24T03:14:43.845Z,22.08
2022-09-24T03:17:11.770Z,21.17
2022-09-24T03:19:38.673Z,22.13
2022-09-24T03:22:05.739Z,22.65
2022-09-24T03:24:57.739Z,21.83
2022-09-24T03:27:27.777Z,21.50
2022-09-24T03:30:14.304Z,21.35
2022-09-24T03:32:42.191Z,23.45
2022-09-24T03:35:11.946Z,23.17
2022-09-24T03:37:45.869Z,22.42
2022-09-24T03:40:17.841Z,21.88
2022-09-24T03:42:45.772Z,23.27
2022-09-24T03:45:13.621Z,23.75
2022-09-24T03:47:42.639Z,22.25
2022-09-24T03:50:11.638Z,22.08
2022-09-24T03:52:43.903Z,24.40
2022-09-24T03:55:10.656Z,24.38
2022-09-24T03:57:38.539Z,23.80
2022-09-24T04:00:06.840Z,24.55
2022-09-24T04:02:36.849Z,23.45
2022-09-24T04:05:03.952Z,25.48
2022-09-24T04:07:32.936Z,21.83
2022-09-24T04:10:01.007Z,24.88
2022-09-24T04:12:30.245Z,24.23
2022-09-24T04:14:57.344Z,24.33
2022-09-24T04:17:31.277Z,26.05
2022-09-24T04:19:59.325Z,23.08
2022-09-24T04:22:29.188Z,25.48
2022-09-24T04:24:59.603Z,25.33
2022-09-24T04:27:36.662Z,24.60
2022-09-24T04:30:05.027Z,25.33
2022-09-24T04:32:32.909Z,24.13
2022-09-24T04:35:05.369Z,23.00
2022-09-24T04:37:36.388Z,25.77
2022-09-24T04:40:06.042Z,25.65
2022-09-24T04:42:32.986Z,27.05
2022-09-24T04:45:00.017Z,26.42
2022-09-24T04:47:29.986Z,25.33
2022-09-24T04:50:02.681Z,25.67
2022-09-24T04:52:33.500Z,26.38
2022-09-24T04:55:01.127Z,25.83
2022-09-24T04:57:34.952Z,25.52
2022-09-24T05:00:04.139Z,25.60
2022-09-24T05:02:31.582Z,23.30
2022-09-24T05:04:58.717Z,25.88
2022-09-24T05:07:26.416Z,25.25
2022-09-24T05:09:53.542Z,24.85
2022-09-24T05:12:23.574Z,24.60
2022-09-24T05:14:51.459Z,24.83
2022-09-24T05:17:21.528Z,25.70
2022-09-24T05:19:53.637Z,24.80
2022-09-24T05:22:21.816Z,23.48
2022-09-24T05:26:00.288Z,24.13
2022-09-24T05:28:28.612Z,24.77
2022-09-24T05:31:02.518Z,24.67
2022-09-24T05:33:33.165Z,24.50
2022-09-24T05:36:01.398Z,22.13
2022-09-24T05:38:30.091Z,23.92
2022-09-24T05:41:01.232Z,23.95
2022-09-24T05:43:31.839Z,22.42
2022-09-24T05:45:59.009Z,24.08
2022-09-24T05:48:28.259Z,24.25
2022-09-24T05:50:56.485Z,24.42
2022-09-24T05:53:24.778Z,22.80
2022-09-24T05:55:51.748Z,23.00
2022-09-24T05:58:20.433Z,25.17
2022-09-24T06:00:48.626Z,24.77
2022-09-24T06:03:20.036Z,24.48
2022-09-24T06:05:50.262Z,26.02
2022-09-24T06:08:19.648Z,24.25
2022-09-24T06:10:48.698Z,24.77
2022-09-24T06:13:18.727Z,25.23
2022-09-24T06:15:48.837Z,24.55
2022-09-24T06:18:17.013Z,25.38
2022-09-24T06:20:47.160Z,26.15
2022-09-24T06:23:15.254Z,23.88
2022-09-24T06:25:43.350Z,24.30
2022-09-24T06:28:10.482Z,24.35
2022-09-24T06:30:41.361Z,24.15
2022-09-24T06:33:12.790Z,23.45
2022-09-24T06:35:44.531Z,25.27
2022-09-24T06:38:16.945Z,24.00
2022-09-24T06:40:51.472Z,23.65
2022-09-24T06:43:19.514Z,23.23
2022-09-24T06:45:46.532Z,22.90
2022-09-24T06:48:41.433Z,23.70
2022-09-24T06:51:08.731Z,21.95
2022-09-24T06:53:36.753Z,23.58
2022-09-24T06:56:04.333Z,24.65
2022-09-24T06:58:31.414Z,23.00
2022-09-24T07:01:01.672Z,24.67
2022-09-24T07:03:34.147Z,23.80
2022-09-24T07:06:05.193Z,21.75
2022-09-24T07:08:32.581Z,24.38
2022-09-24T07:11:02.714Z,23.13
2022-09-24T07:13:32.833Z,22.88
2022-09-24T07:16:05.187Z,24.55
2022-09-24T07:18:32.130Z,21.75
2022-09-24T07:21:00.073Z,24.58
2022-09-24T07:23:28.119Z,22.73
2022-09-24T07:26:48.195Z,24.42
2022-09-24T07:29:16.265Z,23.95
2022-09-24T07:31:43.395Z,23.17
2022-09-24T07:34:14.249Z,25.10
2022-09-24T07:36:44.222Z,24.42
2022-09-24T07:39:11.161Z,25.23
2022-09-24T07:41:42.177Z,24.25
2022-09-24T07:44:10.503Z,25.38
2022-09-24T07:46:38.526Z,23.92
2022-09-24T07:49:05.959Z,24.48
2022-09-24T07:51:32.931Z,23.25
2022-09-24T07:54:01.243Z,23.95
2022-09-24T07:56:32.006Z,23.10
2022-09-24T07:58:59.985Z,22.77
2022-09-24T08:01:28.069Z,23.38
2022-09-24T08:03:56.003Z,22.60
2022-09-24T08:06:23.294Z,22.40
2022-09-24T08:08:53.075Z,23.25
2022-09-24T08:11:21.436Z,22.25
2022-09-24T08:13:49.378Z,20.27
2022-09-24T08:16:16.662Z,21.10
2022-09-24T08:18:44.108Z,22.17
2022-09-24T08:21:13.298Z,22.38
2022-09-24T08:23:43.691Z,19.35
2022-09-24T08:26:12.668Z,21.80
2022-09-24T08:28:42.139Z,20.63
2022-09-24T08:31:12.878Z,19.33
2022-09-24T08:33:40.209Z,20.35
2022-09-24T08:36:10.831Z,20.42
2022-09-24T08:38:38.936Z,20.23
2022-09-24T08:41:12.238Z,20.92
2022-09-24T08:44:04.035Z,19.58
2022-09-24T08:47:06.380Z,20.00
2022-09-24T08:49:49.694Z,18.80
2022-09-24T08:52:44.005Z,21.60
2022-09-24T08:55:33.978Z,20.27
2022-09-24T08:58:08.898Z,20.33
2022-09-24T09:01:04.641Z,19.67
2022-09-24T09:03:49.403Z,19.92
2022-09-24T09:06:36.162Z,18.60
2022-09-24T09:09:20.245Z,18.27
2022-09-24T09:11:52.060Z,20.55
2022-09-24T09:14:58.756Z,20.50
2022-09-24T09:17:56.803Z,19.98
2022-09-24T09:20:45.881Z,21.23
2022-09-24T09:23:17.117Z,21.17
2022-09-24T09:26:03.080Z,20.15
2022-09-24T09:28:30.181Z,20.48
2022-09-24T09:30:58.936Z,20.80
2022-09-24T09:33:42.356Z,21.60
2022-09-24T09:36:31.973Z,20.60
2022-09-24T09:39:37.577Z,20.92
2022-09-24T09:42:26.044Z,21.40
2022-09-24T09:44:54.496Z,20.10
2022-09-24T09:47:40.859Z,19.67
2022-09-24T09:50:35.932Z,20.10
2022-09-24T09:53:05.017Z,20.63
2022-09-24T09:55:37.348Z,19.33
2022-09-24T09:58:20.137Z,20.00
2022-09-24T10:03:33.781Z,18.65
2022-09-24T10:06:03.383Z,18.73
2022-09-24T10:08:30.647Z,19.77
2022-09-24T10:11:03.440Z,18.98
2022-09-24T10:13:33.935Z,17.42
2022-09-24T10:16:04.877Z,19.10
2022-09-24T10:18:39.030Z,20.00
2022-09-24T10:21:12.155Z,19.40
2022-09-24T10:23:44.384Z,18.75
2022-09-24T10:26:13.550Z,18.65
2022-09-24T10:29:16.574Z,19.10
2022-09-24T10:31:49.250Z,19.02
2022-09-24T10:34:26.842Z,20.42
2022-09-24T10:37:13.662Z,18.83
2022-09-24T10:39:42.915Z,20.27
2022-09-24T10:42:32.483Z,18.83
2022-09-24T10:45:02.713Z,17.25
2022-09-24T10:48:05.062Z,15.85
2022-09-24T10:50:45.982Z,42.25
2022-09-24T10:53:42.169Z,14.27
2022-09-24T10:56:43.605Z,14.25
2022-09-24T10:59:21.301Z,14.57
2022-09-24T11:01:54.671Z,14.70
2022-09-24T11:04:39.855Z,14.95
2022-09-24T11:07:49.108Z,16.00
2022-09-24T11:10:27.995Z,15.23
2022-09-24T11:13:17.254Z,15.05
2022-09-24T11:16:02.803Z,14.48
2022-09-24T11:18:36.642Z,14.43
2022-09-24T11:21:12.289Z,15.23
2022-09-24T11:23:56.354Z,15.48
2022-09-24T11:26:33.166Z,15.18
2022-09-24T11:29:37.133Z,14.77
2022-09-24T11:32:20.186Z,15.60
2022-09-24T11:34:59.310Z,15.05
2022-09-24T11:38:03.734Z,15.50
2022-09-24T11:41:03.558Z,15.90
2022-09-24T11:44:11.367Z,17.00
2022-09-24T11:47:01.504Z,16.45
2022-09-24T11:49:42.541Z,16.50
2022-09-24T11:52:15.320Z,17.35
2022-09-24T11:55:23.723Z,18.02
2022-09-24T11:58:04.820Z,17.38
2022-09-24T12:00:40.584Z,18.20
2022-09-24T12:03:26.289Z,17.55
2022-09-24T12:06:15.119Z,18.77
2022-09-24T12:08:45.937Z,20.08
2022-09-24T12:11:36.768Z,19.75
2022-09-24T12:14:26.683Z,21.38
2022-09-24T12:17:02.811Z,19.90
2022-09-24T12:19:42.050Z,20.80
2022-09-24T12:22:12.064Z,22.67
2022-09-24T12:24:57.035Z,20.38
2022-09-24T12:27:33.391Z,21.17
2022-09-24T12:30:57.441Z,21.58
2022-09-24T12:33:43.355Z,18.77
2022-09-24T12:36:21.649Z,21.38
2022-09-24T12:38:54.259Z,21.20
2022-09-24T12:41:25.007Z,20.80
2022-09-24T12:44:11.097Z,19.42
2022-09-24T12:46:56.799Z,19.38
2022-09-24T12:49:26.858Z,18.58
2022-09-24T12:52:00.705Z,17.02
2022-09-24T12:54:38.578Z,17.42
2022-09-24T12:57:21.350Z,13.93
2022-09-24T13:00:05.873Z,14.25
2022-09-24T13:02:47.693Z,13.57
2022-09-24T13:05:23.720Z,13.27
2022-09-24T13:07:58.329Z,13.85
2022-09-24T13:10:30.292Z,13.05
2022-09-24T13:13:00.359Z,14.48
2022-09-24T13:15:35.153Z,14.38
2022-09-24T13:18:07.009Z,14.20
2022-09-24T13:20:35.072Z,14.83
2022-09-24T13:23:31.707Z,15.68
2022-09-24T13:26:05.159Z,15.30
2022-09-24T13:28:38.747Z,15.57
2022-09-24T13:31:13.331Z,16.02
2022-09-24T13:33:45.497Z,15.73
2022-09-24T13:36:40.528Z,14.00
2022-09-24T13:39:33.690Z,16.73
2022-09-24T13:42:43.338Z,17.85
2022-09-24T13:45:17.035Z,17.77
2022-09-24T13:47:53.400Z,18.05
2022-09-24T13:50:28.942Z,18.63
2022-09-24T13:53:02.371Z,19.42
2022-09-24T13:55:45.061Z,20.02
2022-09-24T13:58:41.148Z,19.50
2022-09-24T14:01:24.425Z,18.50
2022-09-24T14:04:18.682Z,20.08
2022-09-24T14:06:53.611Z,20.42
2022-09-24T14:09:23.592Z,21.65
2022-09-24T14:11:53.794Z,22.50
2022-09-24T14:14:24.509Z,23.00
2022-09-24T14:16:55.715Z,24.55
2022-09-24T14:19:23.702Z,25.25
2022-09-24T14:21:55.168Z,27.23
2022-09-24T14:24:54.078Z,26.10
2022-09-24T14:27:23.531Z,25.17
2022-09-24T14:30:04.144Z,24.30
2022-09-24T14:32:42.456Z,23.85
2022-09-24T14:35:25.494Z,21.45
2022-09-24T14:38:14.009Z,22.33
2022-09-24T14:40:57.816Z,22.67
2022-09-24T14:43:45.360Z,22.33
2022-09-24T14:46:23.369Z,22.50
2022-09-24T14:48:52.286Z,22.17
2022-09-24T14:51:30.766Z,21.50
2022-09-24T14:54:00.203Z,20.27
2022-09-24T14:56:31.749Z,19.13
2022-09-24T14:59:02.093Z,18.13
2022-09-24T15:01:33.706Z,17.52
2022-09-24T15:04:05.578Z,17.17
2022-09-24T15:06:35.586Z,15.80
2022-09-24T15:09:26.185Z,15.90
2022-09-24T15:11:55.518Z,16.75
2022-09-24T15:14:27.726Z,17.27
2022-09-24T15:16:55.387Z,17.40
2022-09-24T15:19:24.435Z,17.60
2022-09-24T15:21:59.135Z,18.20
2022-09-24T15:24:26.330Z,18.83
2022-09-24T15:27:21.377Z,20.38
2022-09-24T15:29:48.693Z,19.20
2022-09-24T15:32:19.006Z,20.90
2022-09-24T15:34:46.744Z,18.08
2022-09-24T15:37:20.164Z,17.83
2022-09-24T15:39:49.799Z,18.08
2022-09-24T15:42:25.378Z,17.50
2022-09-24T15:44:54.622Z,18.88
2022-09-24T15:47:23.285Z,18.85
2022-09-24T15:49:50.215Z,19.83
2022-09-24T15:52:25.254Z,20.48
2022-09-24T15:54:58.641Z,19.15
2022-09-24T15:57:27.181Z,20.13
2022-09-24T15:59:56.185Z,21.35
2022-09-24T16:02:33.468Z,20.17
2022-09-24T16:05:03.825Z,20.13
2022-09-24T16:07:31.380Z,19.73
2022-09-24T16:09:58.381Z,19.98
2022-09-24T16:12:28.368Z,19.95
2022-09-24T16:14:59.116Z,20.52
2022-09-24T16:17:28.108Z,22.52
2022-09-24T16:19:55.036Z,22.40
2022-09-24T16:22:25.379Z,22.02
2022-09-24T16:24:52.275Z,20.60
2022-09-24T16:27:20.155Z,21.17
2022-09-24T16:29:47.172Z,22.73
2022-09-24T16:32:14.387Z,21.15
2022-09-24T16:34:42.391Z,19.60
2022-09-24T16:37:10.601Z,20.48
2022-09-24T16:39:37.543Z,20.23
2022-09-24T16:42:05.960Z,20.83
2022-09-24T16:44:33.044Z,18.40
2022-09-24T16:47:00.115Z,17.17
2022-09-24T16:49:27.733Z,18.38
2022-09-24T16:51:55.914Z,16.10
2022-09-24T16:54:23.131Z,17.45
2022-09-24T16:56:52.123Z,18.05
2022-09-24T16:59:19.410Z,18.75
2022-09-24T17:01:46.289Z,19.73
2022-09-24T17:04:13.393Z,19.45
2022-09-24T17:06:44.486Z,20.08
2022-09-24T17:09:31.987Z,19.35
2022-09-24T17:12:01.503Z,19.27
2022-09-24T17:14:29.371Z,18.98
2022-09-24T17:16:56.503Z,21.27
2022-09-24T17:19:23.386Z,21.52
2022-09-24T17:21:50.422Z,21.70
2022-09-24T17:24:21.388Z,22.65
2022-09-24T17:26:50.316Z,20.73
2022-09-24T17:29:20.839Z,22.73
2022-09-24T17:31:49.420Z,22.75
2022-09-24T17:34:16.734Z,22.55
2022-09-24T17:36:43.731Z,22.17
2022-09-24T17:39:13.081Z,24.02
2022-09-24T17:41:40.074Z,21.55
2022-09-24T17:44:07.247Z,23.83
2022-09-24T17:46:36.058Z,22.58
2022-09-24T17:49:03.660Z,21.67
2022-09-24T17:51:36.414Z,21.88
2022-09-24T17:54:13.802Z,22.30
2022-09-24T17:56:42.127Z,22.90
2022-09-24T17:59:12.972Z,22.42
2022-09-24T18:01:43.002Z,23.27
2022-09-24T18:04:12.745Z,22.90
2022-09-24T18:06:41.684Z,23.15
2022-09-24T18:09:11.345Z,22.50
2022-09-24T18:11:41.455Z,24.00
2022-09-24T18:14:16.878Z,22.95
2022-09-24T18:16:45.132Z,21.35
2022-09-24T18:19:17.176Z,21.42
2022-09-24T18:21:46.228Z,20.25
2022-09-24T18:24:14.465Z,20.17
2022-09-24T18:26:41.690Z,19.70
2022-09-24T18:29:14.308Z,19.23
2022-09-24T18:34:11.176Z,18.50
2022-09-24T18:36:41.257Z,18.50
2022-09-24T18:39:13.570Z,19.92
2022-09-24T18:41:43.492Z,20.30
2022-09-24T18:44:11.512Z,19.55
2022-09-24T18:46:40.084Z,19.88
2022-09-24T18:49:08.346Z,19.27
2022-09-24T18:51:38.634Z,19.35
2022-09-24T18:54:14.019Z,19.08
2022-09-24T18:56:42.609Z,18.60
2022-09-24T18:59:16.275Z,21.15
2022-09-24T19:01:46.967Z,20.13
2022-09-24T19:04:16.183Z,19.50
2022-09-24T19:06:45.349Z,20.52
2022-09-24T19:09:18.093Z,20.55
2022-09-24T19:11:45.841Z,21.13
2022-09-24T19:14:15.058Z,22.55
2022-09-24T19:16:43.110Z,23.17
2022-09-24T19:19:11.352Z,23.98
2022-09-24T19:21:40.576Z,25.00
2022-09-24T19:24:09.924Z,23.85
2022-09-24T19:26:37.518Z,22.63
2022-09-24T19:29:06.588Z,22.80
2022-09-24T19:31:37.531Z,18.63
2022-09-24T19:34:10.717Z,16.25
2022-09-24T19:36:43.712Z,11.90
2022-09-24T19:39:13.074Z,13.50
2022-09-24T19:41:39.976Z,10.68
2022-09-24T19:44:09.086Z,12.32
2022-09-24T19:46:37.205Z,8.98
2022-09-24T19:49:05.868Z,9.27
2022-09-24T19:51:35.039Z,10.15
2022-09-24T19:54:04.476Z,11.38
2022-09-24T19:56:32.005Z,11.25
2022-09-24T19:59:04.559Z,13.27
2022-09-24T20:01:33.664Z,12.90
2022-09-24T20:04:05.393Z,13.93
2022-09-24T20:06:34.180Z,13.70
2022-09-24T20:09:10.521Z,12.65
2022-09-24T20:11:37.560Z,11.45
2022-09-24T20:14:11.388Z,12.80
2022-09-24T20:16:42.869Z,11.50
2022-09-24T20:19:12.133Z,10.30
2022-09-24T20:21:45.113Z,10.05
2022-09-24T20:24:18.778Z,8.50
2022-09-24T20:27:06.284Z,8.52
2022-09-24T20:29:34.325Z,8.77
2022-09-24T20:32:04.355Z,7.85
2022-09-24T20:34:35.862Z,7.70
2022-09-24T20:37:05.815Z,7.70
2022-09-24T20:39:33.059Z,7.72
2022-09-24T20:42:05.912Z,7.15
2022-09-24T20:44:33.940Z,7.00
2022-09-24T20:47:01.210Z,7.15
2022-09-24T20:49:29.994Z,6.55
2022-09-24T20:51:58.006Z,7.18
2022-09-24T20:54:28.690Z,6.00
2022-09-24T20:56:56.193Z,6.43
2022-09-24T20:59:25.741Z,6.60
2022-09-24T21:01:54.633Z,6.47
2022-09-24T21:04:35.039Z,6.32
2022-09-24T21:07:02.302Z,5.68
2022-09-24T21:09:30.173Z,6.75
2022-09-24T21:11:58.975Z,6.07
2022-09-24T21:14:27.821Z,6.05
2022-09-24T21:16:56.439Z,5.65
2022-09-24T21:19:26.103Z,5.90
2022-09-24T21:21:54.222Z,6.15
2022-09-24T21:24:31.145Z,5.72
2022-09-24T21:26:59.421Z,6.15
2022-09-24T21:29:30.556Z,5.65
2022-09-24T21:31:59.815Z,5.30
2022-09-24T21:34:28.038Z,6.40
2022-09-24T21:36:56.068Z,6.38
2022-09-24T21:39:28.975Z,6.00
2022-09-24T21:41:59.216Z,5.95
2022-09-24T21:44:31.884Z,6.32
2022-09-24T21:49:28.286Z,5.82
2022-09-24T21:51:57.579Z,6.45
2022-09-24T21:54:24.617Z,6.15
2022-09-24T21:56:54.282Z,7.03
2022-09-24T21:59:40.279Z,6.82
2022-09-24T22:02:08.590Z,7.78
2022-09-24T22:04:36.100Z,7.78
2022-09-24T22:07:03.247Z,8.70
2022-09-24T22:09:32.165Z,9.25
2022-09-24T22:12:00.878Z,10.32
2022-09-24T22:14:27.958Z,9.85
2022-09-24T22:16:56.231Z,10.10
2022-09-24T22:19:24.118Z,9.63
2022-09-24T22:21:52.344Z,10.35
2022-09-24T22:24:19.702Z,10.25
2022-09-24T22:26:46.717Z,10.43
2022-09-24T22:29:13.701Z,9.55
2022-09-24T22:31:41.690Z,10.15
2022-09-24T22:34:29.034Z,9.15
2022-09-24T22:36:57.455Z,8.63
2022-09-24T22:39:25.396Z,8.65
2022-09-24T22:41:52.662Z,8.85
2022-09-24T22:44:19.570Z,8.40
2022-09-24T22:46:46.522Z,8.55
2022-09-24T22:49:16.030Z,7.63
2022-09-24T22:51:42.872Z,8.05
2022-09-24T22:54:10.413Z,6.85
2022-09-24T22:56:37.914Z,7.55
2022-09-24T22:59:05.179Z,6.30
2022-09-24T23:01:34.997Z,5.95
2022-09-24T23:04:08.065Z,5.88
2022-09-24T23:06:36.963Z,5.78
2022-09-24T23:09:05.145Z,5.60
2022-09-24T23:11:34.634Z,4.85
2022-09-24T23:14:06.476Z,5.07
2022-09-24T23:16:36.171Z,4.65
2022-09-24T23:19:12.407Z,4.35
2022-09-24T23:21:42.804Z,5.57
2022-09-24T23:24:17.568Z,4.78
2022-09-24T23:26:45.527Z,4.35
2022-09-24T23:29:13.535Z,4.32
2022-09-24T23:31:40.634Z,4.70
2022-09-24T23:34:08.657Z,3.75
2022-09-24T23:36:36.230Z,4.03
2022-09-24T23:39:07.770Z,4.28
2022-09-24T23:41:34.821Z,4.10
2022-09-24T23:44:04.163Z,3.75
2022-09-24T23:46:33.790Z,3.60
2022-09-24T23:49:01.068Z,3.70
2022-09-24T23:51:30.012Z,3.42
2022-09-24T23:53:57.085Z,3.60
2022-09-24T23:56:24.256Z,4.13
2022-09-24T23:58:51.130Z,3.70
